createdAt,value
2017-03-24T00:00:27.363Z,8.30
2017-03-24T00:01:28.662Z,8.50
2017-03-24T00:02:29.008Z,8.50
2017-03-24T00:03:29.286Z,8.70
2017-03-24T00:04:30.016Z,8.70
2017-03-24T00:05:30.122Z,8.70
2017-03-24T00:06:30.159Z,8.60
2017-03-24T00:07:30.247Z,8.60
2017-03-24T00:08:30.443Z,8.70
2017-03-24T00:09:30.575Z,8.70
2017-03-24T00:10:30.738Z,8.50
2017-03-24T00:11:31.442Z,8.50
2017-03-24T00:12:31.620Z,8.50
2017-03-24T00:13:31.750Z,8.40
2017-03-24T00:14:31.984Z,8.20
2017-03-24T00:15:32.079Z,8.30
2017-03-24T00:16:32.244Z,8.30
2017-03-24T00:17:32.416Z,8.20
2017-03-24T00:18:32.491Z,8.20
2017-03-24T00:19:32.686Z,8.10
2017-03-24T00:20:32.794Z,8.30
2017-03-24T00:21:33.591Z,8.10
2017-03-24T00:22:33.696Z,8.30
2017-03-24T00:23:33.795Z,8.20
2017-03-24T00:24:33.911Z,8.20
2017-03-24T00:25:34.043Z,8.40
2017-03-24T00:26:34.153Z,8.10
2017-03-24T00:27:34.302Z,8.20
2017-03-24T00:28:35.250Z,8.20
2017-03-24T00:29:36.827Z,7.90
2017-03-24T00:30:38.103Z,8.20
2017-03-24T00:31:38.957Z,8.10
2017-03-24T00:32:39.073Z,8.10
2017-03-24T00:33:39.898Z,8.10
2017-03-24T00:34:39.947Z,8.10
2017-03-24T00:35:39.990Z,8.00
2017-03-24T00:36:39.947Z,8.10
2017-03-24T00:37:39.977Z,7.90
2017-03-24T00:38:39.944Z,7.80
2017-03-24T00:39:39.938Z,7.90
2017-03-24T00:40:39.963Z,8.00
2017-03-24T00:41:39.967Z,7.80
2017-03-24T00:42:39.987Z,7.80
2017-03-24T00:43:39.952Z,7.80
2017-03-24T00:44:39.933Z,7.90
2017-03-24T00:45:40.007Z,7.80
2017-03-24T00:46:39.995Z,8.00
2017-03-24T00:47:40.014Z,7.90
2017-03-24T00:48:40.010Z,7.80
2017-03-24T00:49:39.995Z,7.80
2017-03-24T00:50:39.977Z,7.80
2017-03-24T00:51:39.920Z,7.90
2017-03-24T00:52:39.869Z,7.90
2017-03-24T00:53:39.851Z,7.90
2017-03-24T00:54:39.798Z,7.80
2017-03-24T00:55:39.759Z,7.70
2017-03-24T00:56:39.784Z,7.70
2017-03-24T00:57:40.316Z,7.80
2017-03-24T00:58:40.354Z,8.00
2017-03-24T00:59:41.100Z,7.80
2017-03-24T01:00:41.816Z,7.80
2017-03-24T01:01:41.783Z,7.90
2017-03-24T01:02:41.799Z,7.90
2017-03-24T01:03:42.816Z,7.70
2017-03-24T01:04:42.797Z,7.70
2017-03-24T01:05:42.776Z,7.90
2017-03-24T01:06:42.780Z,7.90
2017-03-24T01:07:43.591Z,7.80
2017-03-24T01:08:44.410Z,7.80
2017-03-24T01:09:44.414Z,7.80
2017-03-24T01:10:44.430Z,7.80
2017-03-24T01:11:44.459Z,7.80
2017-03-24T01:12:44.560Z,7.90
2017-03-24T01:13:44.602Z,7.70
2017-03-24T01:14:44.754Z,7.90
2017-03-24T01:15:45.518Z,7.90
2017-03-24T01:16:45.582Z,7.90
2017-03-24T01:17:45.656Z,7.90
2017-03-24T01:18:45.665Z,7.80
2017-03-24T01:19:45.693Z,7.90
2017-03-24T01:20:45.748Z,8.00
2017-03-24T01:21:45.729Z,7.70
2017-03-24T01:22:46.188Z,7.80
2017-03-24T01:23:46.206Z,7.90
2017-03-24T01:24:46.678Z,7.70
2017-03-24T01:25:47.581Z,7.90
2017-03-24T01:26:47.559Z,7.90
2017-03-24T01:27:47.582Z,7.60
2017-03-24T01:28:47.614Z,7.70
2017-03-24T01:29:48.281Z,7.70
2017-03-24T01:30:48.261Z,7.70
2017-03-24T01:31:48.261Z,7.40
2017-03-24T01:32:48.984Z,7.80
2017-03-24T01:33:48.995Z,7.80
2017-03-24T01:34:48.997Z,7.90
2017-03-24T01:35:49.063Z,7.90
2017-03-24T01:36:49.002Z,7.80
2017-03-24T01:37:48.959Z,8.10
2017-03-24T01:38:49.035Z,7.90
2017-03-24T01:39:49.731Z,8.10
2017-03-24T01:40:49.725Z,8.10
2017-03-24T01:41:49.726Z,7.80
2017-03-24T01:42:49.688Z,7.80
2017-03-24T01:43:49.809Z,8.10
2017-03-24T01:44:49.803Z,7.80
2017-03-24T01:45:49.871Z,8.10
2017-03-24T01:46:49.848Z,8.10
2017-03-24T01:47:49.818Z,8.20
2017-03-24T01:48:49.810Z,8.10
2017-03-24T01:49:49.816Z,8.30
2017-03-24T01:50:49.820Z,8.30
2017-03-24T01:51:49.810Z,8.20
2017-03-24T01:52:49.815Z,8.10
2017-03-24T01:53:49.855Z,8.20
2017-03-24T01:54:49.886Z,8.20
2017-03-24T01:55:54.140Z,8.10
2017-03-24T01:56:54.157Z,8.10
2017-03-24T01:57:54.879Z,8.30
2017-03-24T01:58:54.919Z,8.20
2017-03-24T01:59:54.866Z,8.20
2017-03-24T02:00:54.901Z,8.20
2017-03-24T02:01:55.081Z,8.20
2017-03-24T02:02:55.066Z,8.10
2017-03-24T02:03:55.073Z,8.10
2017-03-24T02:04:55.035Z,8.20
2017-03-24T02:05:55.158Z,8.10
2017-03-24T02:06:55.171Z,8.10
2017-03-24T02:07:55.182Z,8.20
2017-03-24T02:08:55.247Z,8.00
2017-03-24T02:09:55.235Z,8.10
2017-03-24T02:10:55.187Z,8.20
2017-03-24T02:11:55.205Z,8.10
2017-03-24T02:12:55.250Z,8.10
2017-03-24T02:13:55.238Z,8.10
2017-03-24T02:14:55.187Z,8.10
2017-03-24T02:15:55.882Z,8.00
2017-03-24T02:16:55.855Z,8.20
2017-03-24T02:17:55.842Z,8.10
2017-03-24T02:18:56.563Z,8.20
2017-03-24T02:19:56.508Z,8.20
2017-03-24T02:20:56.462Z,8.10
2017-03-24T02:21:56.455Z,8.30
2017-03-24T02:22:56.499Z,8.20
2017-03-24T02:23:57.370Z,8.30
2017-03-24T02:25:01.861Z,8.50
2017-03-24T02:26:01.990Z,8.20
2017-03-24T02:27:02.022Z,8.20
2017-03-24T02:28:02.019Z,8.10
2017-03-24T02:29:02.023Z,8.30
2017-03-24T02:30:01.994Z,8.20
2017-03-24T02:31:01.990Z,8.20
2017-03-24T02:32:02.031Z,8.20
2017-03-24T02:33:02.019Z,8.20
2017-03-24T02:34:02.071Z,8.20
2017-03-24T02:35:02.070Z,8.20
2017-03-24T02:36:02.026Z,8.50
2017-03-24T02:37:02.053Z,8.30
2017-03-24T02:38:02.048Z,8.20
2017-03-24T02:39:02.198Z,8.40
2017-03-24T02:40:02.250Z,8.40
2017-03-24T02:41:02.255Z,8.50
2017-03-24T02:42:02.262Z,8.50
2017-03-24T02:43:02.230Z,8.50
2017-03-24T02:44:02.351Z,8.50
2017-03-24T02:45:02.422Z,8.50
2017-03-24T02:46:02.419Z,8.30
2017-03-24T02:47:02.435Z,8.10
2017-03-24T02:48:02.458Z,8.20
2017-03-24T02:49:02.449Z,8.20
2017-03-24T02:50:02.448Z,8.60
2017-03-24T02:51:02.443Z,8.60
2017-03-24T02:52:02.485Z,8.20
2017-03-24T02:53:02.465Z,8.10
2017-03-24T02:54:02.494Z,8.10
2017-03-24T02:55:02.555Z,8.20
2017-03-24T02:56:02.589Z,8.10
2017-03-24T02:57:02.562Z,8.10
2017-03-24T02:58:02.557Z,8.10
2017-03-24T02:59:02.576Z,7.80
2017-03-24T03:00:02.610Z,7.90
2017-03-24T03:01:02.666Z,8.10
2017-03-24T03:02:02.626Z,8.20
2017-03-24T03:03:02.644Z,8.20
2017-03-24T03:04:02.723Z,8.20
2017-03-24T03:05:02.757Z,8.20
2017-03-24T03:06:02.748Z,8.30
2017-03-24T03:07:02.840Z,8.30
2017-03-24T03:08:02.810Z,8.40
2017-03-24T03:09:03.317Z,8.10
2017-03-24T03:10:03.351Z,8.60
2017-03-24T03:11:03.658Z,8.30
2017-03-24T03:12:03.649Z,8.20
2017-03-24T03:13:03.703Z,8.00
2017-03-24T03:14:03.695Z,8.30
2017-03-24T03:15:03.708Z,8.20
2017-03-24T03:16:03.718Z,8.20
2017-03-24T03:17:03.768Z,8.20
2017-03-24T03:18:03.799Z,8.30
2017-03-24T03:19:03.801Z,8.50
2017-03-24T03:20:03.797Z,8.40
2017-03-24T03:21:03.804Z,8.60
2017-03-24T03:22:03.847Z,8.50
2017-03-24T03:23:03.801Z,8.60
2017-03-24T03:24:03.814Z,8.60
2017-03-24T03:25:05.499Z,8.50
2017-03-24T03:26:06.247Z,8.50
2017-03-24T03:27:06.266Z,8.60
2017-03-24T03:28:06.334Z,8.60
2017-03-24T03:29:06.375Z,8.50
2017-03-24T03:30:06.390Z,8.50
2017-03-24T03:31:06.421Z,8.50
2017-03-24T03:32:06.413Z,8.20
2017-03-24T03:33:06.391Z,8.10
2017-03-24T03:34:06.398Z,8.00
2017-03-24T03:35:06.427Z,8.10
2017-03-24T03:36:06.453Z,8.00
2017-03-24T03:37:06.468Z,8.00
2017-03-24T03:38:06.466Z,8.20
2017-03-24T03:39:06.509Z,8.30
2017-03-24T03:40:06.512Z,8.20
2017-03-24T03:41:06.571Z,8.10
2017-03-24T03:42:06.548Z,8.50
2017-03-24T03:43:06.573Z,8.50
2017-03-24T03:44:06.593Z,8.50
2017-03-24T03:45:06.606Z,8.20
2017-03-24T03:46:06.653Z,8.00
2017-03-24T03:47:07.436Z,8.00
2017-03-24T03:48:07.441Z,8.20
2017-03-24T03:49:07.443Z,8.10
2017-03-24T03:50:07.490Z,7.80
2017-03-24T03:51:07.521Z,7.70
2017-03-24T03:52:07.487Z,7.70
2017-03-24T03:53:07.454Z,7.80
2017-03-24T03:54:07.506Z,7.80
2017-03-24T03:55:07.489Z,7.70
2017-03-24T03:56:07.502Z,7.70
2017-03-24T03:57:07.518Z,7.70
2017-03-24T03:58:07.541Z,7.70
2017-03-24T03:59:07.518Z,7.70
2017-03-24T04:00:07.482Z,7.60
2017-03-24T04:01:07.603Z,7.80
2017-03-24T04:02:07.628Z,7.80
2017-03-24T04:03:07.649Z,7.40
2017-03-24T04:04:07.654Z,7.80
2017-03-24T04:05:07.694Z,7.60
2017-03-24T04:06:07.741Z,7.50
2017-03-24T04:07:07.727Z,7.50
2017-03-24T04:08:08.506Z,7.70
2017-03-24T04:09:08.561Z,7.50
2017-03-24T04:10:08.604Z,7.80
2017-03-24T04:11:08.611Z,7.60
2017-03-24T04:12:08.642Z,7.70
2017-03-24T04:13:08.638Z,7.70
2017-03-24T04:14:08.703Z,7.70
2017-03-24T04:15:08.775Z,7.70
2017-03-24T04:16:08.780Z,7.80
2017-03-24T04:17:09.453Z,7.30
2017-03-24T04:18:09.427Z,7.30
2017-03-24T04:19:09.455Z,7.70
2017-03-24T04:20:09.490Z,7.70
2017-03-24T04:21:09.554Z,7.80
2017-03-24T04:22:09.553Z,7.70
2017-03-24T04:23:09.549Z,7.20
2017-03-24T04:24:09.528Z,7.20
2017-03-24T04:25:10.424Z,7.50
2017-03-24T04:26:10.452Z,7.40
2017-03-24T04:27:10.434Z,7.40
2017-03-24T04:28:10.467Z,7.10
2017-03-24T04:29:10.457Z,6.90
2017-03-24T04:30:10.522Z,7.40
2017-03-24T04:31:10.567Z,7.50
2017-03-24T04:32:11.295Z,7.30
2017-03-24T04:33:11.266Z,7.10
2017-03-24T04:34:11.235Z,7.10
2017-03-24T04:35:17.630Z,6.90
2017-03-24T04:36:17.669Z,7.00
2017-03-24T04:37:17.642Z,7.10
2017-03-24T04:38:17.675Z,7.00
2017-03-24T04:39:17.692Z,7.00
2017-03-24T04:40:17.698Z,6.80
2017-03-24T04:41:17.700Z,6.90
2017-03-24T04:42:17.722Z,7.50
2017-03-24T04:43:17.739Z,7.30
2017-03-24T04:44:17.714Z,7.50
2017-03-24T04:45:24.311Z,7.40
2017-03-24T04:46:24.354Z,7.80
2017-03-24T04:47:24.357Z,7.50
2017-03-24T04:48:24.363Z,7.50
2017-03-24T04:49:24.348Z,7.50
2017-03-24T04:50:24.406Z,7.40
2017-03-24T04:51:24.431Z,7.70
2017-03-24T04:52:24.440Z,7.80
2017-03-24T04:53:24.438Z,7.70
2017-03-24T04:54:25.847Z,7.50
2017-03-24T04:55:25.822Z,7.50
2017-03-24T04:56:25.866Z,7.40
2017-03-24T04:57:26.582Z,7.40
2017-03-24T04:58:26.557Z,7.20
2017-03-24T04:59:26.538Z,7.10
2017-03-24T05:00:26.581Z,6.90
2017-03-24T05:01:26.599Z,7.50
2017-03-24T05:02:26.593Z,7.30
2017-03-24T05:03:26.563Z,7.20
2017-03-24T05:04:26.599Z,7.50
2017-03-24T05:05:26.558Z,7.50
2017-03-24T05:06:26.573Z,7.60
2017-03-24T05:07:26.534Z,7.60
2017-03-24T05:08:26.511Z,7.40
2017-03-24T05:09:26.529Z,7.20
2017-03-24T05:10:26.526Z,7.10
2017-03-24T05:11:26.491Z,7.00
2017-03-24T05:12:27.227Z,7.40
2017-03-24T05:13:27.162Z,7.50
2017-03-24T05:14:27.184Z,6.90
2017-03-24T05:15:27.156Z,7.20
2017-03-24T05:16:27.118Z,7.20
2017-03-24T05:17:28.315Z,7.40
2017-03-24T05:18:28.319Z,7.40
2017-03-24T05:19:28.398Z,7.40
2017-03-24T05:20:28.368Z,7.40
2017-03-24T05:21:28.414Z,7.20
2017-03-24T05:22:28.358Z,7.00
2017-03-24T05:23:28.322Z,7.00
2017-03-24T05:24:28.287Z,7.40
2017-03-24T05:25:28.256Z,6.90
2017-03-24T05:26:28.237Z,7.40
2017-03-24T05:27:28.961Z,7.30
2017-03-24T05:28:28.969Z,6.90
2017-03-24T05:29:28.894Z,7.00
2017-03-24T05:30:28.889Z,7.40
2017-03-24T05:31:28.868Z,7.40
2017-03-24T05:32:29.099Z,7.20
2017-03-24T05:33:29.071Z,7.50
2017-03-24T05:34:29.034Z,7.30
2017-03-24T05:35:29.030Z,7.20
2017-03-24T05:36:29.114Z,7.40
2017-03-24T05:37:29.846Z,7.30
2017-03-24T05:38:29.822Z,7.20
2017-03-24T05:39:29.846Z,7.30
2017-03-24T05:40:31.016Z,7.50
2017-03-24T05:41:31.016Z,7.80
2017-03-24T05:42:31.023Z,7.70
2017-03-24T05:43:30.946Z,7.80
2017-03-24T05:44:30.926Z,7.90
2017-03-24T05:45:30.890Z,7.90
2017-03-24T05:46:30.894Z,7.80
2017-03-24T05:47:30.859Z,7.60
2017-03-24T05:48:30.837Z,7.80
2017-03-24T05:49:30.816Z,8.10
2017-03-24T05:50:30.770Z,7.90
2017-03-24T05:51:30.775Z,8.10
2017-03-24T05:52:30.786Z,8.20
2017-03-24T05:53:30.759Z,8.10
2017-03-24T05:54:31.445Z,8.10
2017-03-24T05:55:31.609Z,8.10
2017-03-24T05:56:31.577Z,8.20
2017-03-24T05:57:31.632Z,8.10
2017-03-24T05:58:31.715Z,8.10
2017-03-24T05:59:32.443Z,8.60
2017-03-24T06:00:32.411Z,8.10
2017-03-24T06:01:32.468Z,8.30
2017-03-24T06:02:32.443Z,8.50
2017-03-24T06:03:32.395Z,8.40
2017-03-24T06:04:32.406Z,8.40
2017-03-24T06:05:32.414Z,8.40
2017-03-24T06:06:32.467Z,8.50
2017-03-24T06:07:32.514Z,8.40
2017-03-24T06:08:32.668Z,8.40
2017-03-24T06:09:32.691Z,8.70
2017-03-24T06:10:32.740Z,8.70
2017-03-24T06:11:33.441Z,8.30
2017-03-24T06:12:33.476Z,8.70
2017-03-24T06:13:33.466Z,8.60
2017-03-24T06:14:33.474Z,8.60
2017-03-24T06:15:33.428Z,8.50
2017-03-24T06:16:33.391Z,8.60
2017-03-24T06:17:33.466Z,8.60
2017-03-24T06:18:33.460Z,8.70
2017-03-24T06:19:33.459Z,8.70
2017-03-24T06:20:33.461Z,8.60
2017-03-24T06:21:33.571Z,8.60
2017-03-24T06:22:33.556Z,9.00
2017-03-24T06:23:33.515Z,8.70
2017-03-24T06:24:33.454Z,8.60
2017-03-24T06:25:33.418Z,8.70
2017-03-24T06:26:34.115Z,9.00
2017-03-24T06:27:34.096Z,8.90
2017-03-24T06:28:34.094Z,8.50
2017-03-24T06:29:34.042Z,8.80
2017-03-24T06:30:33.995Z,8.50
2017-03-24T06:31:33.975Z,8.90
2017-03-24T06:32:34.037Z,9.00
2017-03-24T06:33:34.311Z,8.90
2017-03-24T06:34:34.329Z,9.10
2017-03-24T06:35:34.295Z,9.10
2017-03-24T06:36:34.251Z,8.90
2017-03-24T06:37:34.300Z,8.90
2017-03-24T06:38:35.251Z,9.00
2017-03-24T06:39:36.102Z,9.10
2017-03-24T06:40:36.105Z,9.20
2017-03-24T06:41:36.058Z,9.30
2017-03-24T06:42:36.045Z,9.20
2017-03-24T06:43:35.996Z,9.40
2017-03-24T06:44:35.943Z,9.20
2017-03-24T06:45:35.881Z,9.50
2017-03-24T06:46:35.827Z,9.20
2017-03-24T06:47:36.579Z,9.20
2017-03-24T06:48:36.527Z,9.00
2017-03-24T06:49:36.497Z,9.00
2017-03-24T06:50:36.423Z,9.20
2017-03-24T06:51:36.363Z,9.00
2017-03-24T06:52:36.303Z,9.00
2017-03-24T06:53:36.298Z,8.90
2017-03-24T06:54:36.251Z,8.80
2017-03-24T06:55:36.220Z,8.90
2017-03-24T06:56:36.295Z,8.80
2017-03-24T06:57:36.266Z,8.90
2017-03-24T06:58:36.275Z,9.10
2017-03-24T06:59:36.338Z,9.40
2017-03-24T07:00:36.274Z,9.20
2017-03-24T07:01:36.246Z,9.40
2017-03-24T07:02:36.200Z,8.90
2017-03-24T07:03:36.158Z,8.90
2017-03-24T07:04:36.385Z,8.90
2017-03-24T07:05:36.429Z,9.00
2017-03-24T07:06:36.367Z,9.20
2017-03-24T07:07:37.051Z,9.10
2017-03-24T07:08:37.040Z,9.00
2017-03-24T07:09:37.002Z,9.10
2017-03-24T07:10:36.967Z,9.00
2017-03-24T07:11:36.928Z,8.90
2017-03-24T07:12:36.869Z,9.00
2017-03-24T07:13:36.814Z,8.90
2017-03-24T07:14:36.759Z,8.90
2017-03-24T07:15:36.693Z,9.10
2017-03-24T07:16:36.678Z,9.20
2017-03-24T07:17:36.614Z,9.20
2017-03-24T07:18:36.580Z,8.90
2017-03-24T07:19:36.539Z,9.10
2017-03-24T07:20:36.636Z,9.20
2017-03-24T07:21:36.601Z,8.90
2017-03-24T07:22:36.535Z,9.40
2017-03-24T07:23:36.475Z,9.10
2017-03-24T07:24:37.184Z,9.10
2017-03-24T07:25:37.320Z,8.90
2017-03-24T07:26:37.267Z,9.40
2017-03-24T07:27:37.246Z,9.20
2017-03-24T07:28:37.187Z,9.20
2017-03-24T07:29:37.178Z,9.00
2017-03-24T07:30:37.231Z,9.00
2017-03-24T07:31:37.234Z,9.50
2017-03-24T07:32:37.179Z,9.30
2017-03-24T07:33:37.177Z,8.90
2017-03-24T07:34:37.162Z,8.90
2017-03-24T07:35:38.559Z,9.00
2017-03-24T07:36:38.585Z,9.10
2017-03-24T07:37:38.637Z,8.90
2017-03-24T07:38:38.590Z,8.90
2017-03-24T07:39:38.542Z,9.00
2017-03-24T07:40:38.483Z,9.40
2017-03-24T07:41:38.515Z,9.20
2017-03-24T07:42:38.496Z,9.20
2017-03-24T07:43:38.421Z,9.00
2017-03-24T07:44:38.424Z,9.00
2017-03-24T07:45:38.472Z,9.30
2017-03-24T07:46:38.410Z,8.90
2017-03-24T07:47:38.378Z,9.00
2017-03-24T07:48:39.058Z,9.00
2017-03-24T07:49:39.096Z,9.50
2017-03-24T07:50:39.802Z,8.90
2017-03-24T07:51:39.772Z,9.20
2017-03-24T07:52:39.723Z,9.30
2017-03-24T07:53:39.823Z,9.60
2017-03-24T07:54:39.801Z,9.20
2017-03-24T07:55:39.733Z,9.60
2017-03-24T07:56:39.737Z,9.60
2017-03-24T07:57:39.697Z,9.50
2017-03-24T07:58:39.725Z,9.60
2017-03-24T07:59:39.789Z,9.50
2017-03-24T08:00:39.740Z,9.60
2017-03-24T08:01:39.688Z,9.20
2017-03-24T08:02:39.797Z,9.30
2017-03-24T08:03:39.832Z,9.30
2017-03-24T08:04:39.765Z,9.50
2017-03-24T08:05:39.742Z,9.30
2017-03-24T08:06:39.678Z,9.30
2017-03-24T08:07:39.733Z,9.20
2017-03-24T08:08:39.735Z,9.20
2017-03-24T08:09:39.800Z,9.40
2017-03-24T08:10:39.750Z,9.40
2017-03-24T08:11:39.766Z,8.90
2017-03-24T08:12:39.737Z,9.50
2017-03-24T08:13:39.743Z,9.30
2017-03-24T08:14:39.714Z,9.10
2017-03-24T08:15:39.661Z,9.20
2017-03-24T08:16:39.621Z,9.20
2017-03-24T08:17:39.619Z,9.50
2017-03-24T08:18:39.556Z,9.20
2017-03-24T08:19:39.527Z,9.40
2017-03-24T08:20:39.486Z,9.30
2017-03-24T08:21:39.440Z,9.60
2017-03-24T08:22:40.121Z,9.20
2017-03-24T08:23:40.122Z,9.40
2017-03-24T08:24:40.157Z,9.50
2017-03-24T08:25:40.104Z,9.30
2017-03-24T08:26:40.062Z,9.30
2017-03-24T08:27:39.992Z,9.50
2017-03-24T08:28:39.974Z,9.30
2017-03-24T08:29:39.995Z,9.30
2017-03-24T08:30:39.959Z,9.50
2017-03-24T08:31:39.946Z,9.40
2017-03-24T08:32:39.901Z,9.70
2017-03-24T08:33:39.877Z,9.50
2017-03-24T08:34:40.241Z,9.40
2017-03-24T08:35:40.195Z,9.50
2017-03-24T08:36:40.128Z,9.70
2017-03-24T08:37:40.086Z,9.30
2017-03-24T08:38:40.021Z,9.50
2017-03-24T08:39:40.046Z,9.50
2017-03-24T08:40:40.055Z,9.50
2017-03-24T08:41:40.093Z,9.70
2017-03-24T08:42:40.877Z,9.70
2017-03-24T08:43:40.866Z,10.00
2017-03-24T08:44:40.851Z,9.90
2017-03-24T08:45:40.827Z,10.30
2017-03-24T08:46:40.840Z,10.30
2017-03-24T08:47:40.870Z,10.30
2017-03-24T08:48:40.876Z,10.30
2017-03-24T08:49:40.868Z,10.50
2017-03-24T08:50:40.830Z,10.50
2017-03-24T08:51:40.842Z,10.30
2017-03-24T08:52:40.814Z,10.20
2017-03-24T08:53:40.810Z,9.90
2017-03-24T08:54:40.734Z,10.10
2017-03-24T08:55:41.403Z,10.10
2017-03-24T08:56:42.815Z,10.20
2017-03-24T08:57:42.862Z,9.90
2017-03-24T08:58:42.859Z,10.50
2017-03-24T08:59:42.841Z,10.30
2017-03-24T09:00:42.822Z,10.60
2017-03-24T09:01:42.762Z,10.40
2017-03-24T09:02:43.466Z,10.20
2017-03-24T09:03:43.443Z,10.40
2017-03-24T09:04:43.430Z,10.20
2017-03-24T09:05:43.485Z,10.50
2017-03-24T09:06:43.455Z,10.60
2017-03-24T09:07:43.458Z,10.80
2017-03-24T09:08:43.486Z,11.30
2017-03-24T09:09:44.299Z,11.60
2017-03-24T09:10:44.375Z,12.30
2017-03-24T09:11:45.045Z,12.80
2017-03-24T09:12:45.001Z,13.10
2017-03-24T09:13:44.966Z,13.10
2017-03-24T09:14:45.902Z,13.60
2017-03-24T09:15:46.645Z,13.60
2017-03-24T09:16:47.461Z,13.50
2017-03-24T09:17:48.152Z,13.50
2017-03-24T09:18:48.082Z,13.70
2017-03-24T09:19:48.038Z,14.30
2017-03-24T09:20:48.056Z,14.50
2017-03-24T09:21:48.135Z,14.60
2017-03-24T09:22:49.229Z,14.80
2017-03-24T09:23:49.190Z,14.50
2017-03-24T09:24:49.385Z,14.20
2017-03-24T09:25:49.390Z,14.30
2017-03-24T09:26:49.350Z,14.80
2017-03-24T09:27:49.358Z,14.80
2017-03-24T09:28:49.303Z,14.70
2017-03-24T09:29:49.234Z,14.50
2017-03-24T09:30:49.264Z,14.00
2017-03-24T09:31:49.284Z,14.10
2017-03-24T09:32:49.242Z,14.50
2017-03-24T09:33:49.340Z,14.50
2017-03-24T09:34:49.322Z,15.10
2017-03-24T09:35:49.317Z,16.20
2017-03-24T09:36:49.258Z,17.10
2017-03-24T09:37:49.250Z,17.80
2017-03-24T09:38:49.974Z,18.10
2017-03-24T09:39:50.058Z,18.40
2017-03-24T09:40:50.082Z,19.00
2017-03-24T09:41:50.810Z,19.60
2017-03-24T09:42:51.489Z,19.90
2017-03-24T09:43:51.455Z,20.00
2017-03-24T09:44:51.385Z,19.70
2017-03-24T09:45:51.391Z,19.40
2017-03-24T09:46:51.371Z,18.90
2017-03-24T09:47:51.415Z,18.90
2017-03-24T09:48:51.394Z,18.80
2017-03-24T09:49:51.353Z,19.00
2017-03-24T09:50:51.395Z,19.30
2017-03-24T09:51:51.414Z,19.70
2017-03-24T09:52:51.393Z,19.90
2017-03-24T09:53:51.407Z,20.00
2017-03-24T09:54:51.357Z,20.10
2017-03-24T09:55:53.355Z,20.10
2017-03-24T09:56:54.718Z,19.90
2017-03-24T09:57:54.681Z,19.10
2017-03-24T09:58:54.646Z,18.70
2017-03-24T09:59:54.613Z,18.50
2017-03-24T10:00:54.655Z,18.60
2017-03-24T10:01:54.669Z,18.80
2017-03-24T10:02:54.750Z,19.20
2017-03-24T10:03:54.721Z,19.50
2017-03-24T10:04:54.713Z,19.70
2017-03-24T10:05:54.724Z,20.30
2017-03-24T10:06:54.706Z,20.90
2017-03-24T10:07:54.681Z,21.30
2017-03-24T10:08:54.650Z,21.30
2017-03-24T10:09:54.597Z,21.40
2017-03-24T10:10:54.574Z,21.70
2017-03-24T10:11:54.572Z,22.00
2017-03-24T10:12:54.518Z,22.30
2017-03-24T10:13:54.478Z,21.80
2017-03-24T10:14:54.441Z,21.70
2017-03-24T10:15:54.430Z,22.00
2017-03-24T10:16:54.391Z,22.20
2017-03-24T10:17:54.341Z,22.70
2017-03-24T10:18:54.290Z,23.10
2017-03-24T10:19:54.275Z,23.30
2017-03-24T10:20:54.245Z,23.70
2017-03-24T10:21:54.209Z,24.20
2017-03-24T10:22:54.205Z,24.60
2017-03-24T10:23:54.198Z,25.20
2017-03-24T10:24:57.452Z,24.90
2017-03-24T10:25:57.435Z,24.80
2017-03-24T10:26:57.382Z,25.00
2017-03-24T10:27:57.381Z,25.00
2017-03-24T10:28:57.391Z,24.70
2017-03-24T10:29:58.146Z,24.20
2017-03-24T10:30:58.154Z,24.10
2017-03-24T10:31:58.084Z,24.00
2017-03-24T10:32:58.014Z,23.80
2017-03-24T10:33:57.980Z,23.60
2017-03-24T10:34:57.915Z,23.60
2017-03-24T10:35:58.050Z,23.80
2017-03-24T10:36:58.030Z,23.50
2017-03-24T10:37:58.018Z,23.30
2017-03-24T10:38:58.035Z,23.30
2017-03-24T10:39:57.973Z,23.40
2017-03-24T10:40:57.961Z,24.00
2017-03-24T10:41:57.986Z,24.40
2017-03-24T10:42:57.930Z,25.00
2017-03-24T10:43:57.916Z,25.70
2017-03-24T10:44:58.008Z,25.90
2017-03-24T10:45:57.979Z,25.70
2017-03-24T10:46:57.937Z,25.70
2017-03-24T10:47:58.590Z,25.10
2017-03-24T10:48:58.535Z,24.60
2017-03-24T10:49:58.509Z,24.30
2017-03-24T10:50:58.559Z,24.30
2017-03-24T10:51:58.575Z,24.30
2017-03-24T10:52:58.538Z,24.70
2017-03-24T10:53:58.517Z,25.00
2017-03-24T10:54:58.489Z,25.40
2017-03-24T10:55:58.484Z,25.20
2017-03-24T10:56:58.484Z,24.90
2017-03-24T10:57:59.186Z,24.90
2017-03-24T10:58:59.181Z,24.60
2017-03-24T10:59:59.156Z,24.30
2017-03-24T11:00:59.196Z,24.50
2017-03-24T11:01:59.193Z,25.00
2017-03-24T11:02:59.333Z,25.20
2017-03-24T11:03:59.313Z,25.40
2017-03-24T11:04:59.645Z,25.70
2017-03-24T11:05:59.631Z,25.70
2017-03-24T11:06:59.600Z,25.40
2017-03-24T11:07:59.569Z,25.20
2017-03-24T11:09:00.118Z,25.20
2017-03-24T11:10:00.120Z,25.30
2017-03-24T11:11:01.355Z,25.60
2017-03-24T11:12:01.337Z,25.90
2017-03-24T11:13:01.314Z,26.50
2017-03-24T11:14:01.268Z,26.70
2017-03-24T11:15:01.227Z,27.10
2017-03-24T11:16:01.277Z,26.90
2017-03-24T11:17:01.354Z,27.30
2017-03-24T11:18:01.330Z,27.40
2017-03-24T11:19:01.317Z,27.30
2017-03-24T11:20:01.303Z,26.70
2017-03-24T11:21:01.285Z,26.60
2017-03-24T11:22:01.509Z,27.00
2017-03-24T11:23:01.613Z,27.10
2017-03-24T11:24:02.314Z,27.00
2017-03-24T11:28:31.162Z,26.80
2017-03-24T11:29:31.137Z,26.70
2017-03-24T11:30:31.087Z,26.60
2017-03-24T11:31:31.113Z,26.70
2017-03-24T11:32:31.093Z,26.30
2017-03-24T11:33:31.130Z,26.30
2017-03-24T11:34:31.138Z,26.20
2017-03-24T11:35:31.166Z,25.90
2017-03-24T11:36:31.121Z,25.40
2017-03-24T11:37:31.097Z,24.90
2017-03-24T11:38:31.857Z,24.70
2017-03-24T11:39:31.900Z,24.60
2017-03-24T11:40:31.880Z,24.60
2017-03-24T11:41:31.841Z,24.70
2017-03-24T11:42:31.831Z,24.70
2017-03-24T11:43:31.802Z,24.60
2017-03-24T11:44:31.807Z,24.90
2017-03-24T11:45:31.790Z,25.00
2017-03-24T11:46:31.774Z,25.00
2017-03-24T11:47:32.498Z,25.40
2017-03-24T11:48:33.241Z,26.00
2017-03-24T11:49:33.237Z,26.20
2017-03-24T11:50:33.218Z,26.40
2017-03-24T11:51:33.206Z,26.80
2017-03-24T11:52:33.150Z,27.40
2017-03-24T11:53:33.145Z,27.60
2017-03-24T11:54:33.107Z,26.50
2017-03-24T11:55:33.082Z,26.10
2017-03-24T11:56:33.094Z,26.10
2017-03-24T11:57:33.101Z,26.10
2017-03-24T11:58:33.115Z,26.60
2017-03-24T11:59:33.186Z,26.80
2017-03-24T12:00:33.194Z,26.60
2017-03-24T12:01:33.918Z,26.10
2017-03-24T12:02:33.885Z,25.90
2017-03-24T12:04:48.026Z,26.90
2017-03-24T12:05:47.997Z,27.00
2017-03-24T12:06:47.978Z,27.10
2017-03-24T12:07:48.057Z,27.00
2017-03-24T12:08:48.041Z,27.00
2017-03-24T12:09:48.025Z,26.50
2017-03-24T12:10:48.001Z,25.90
2017-03-24T12:11:48.009Z,25.60
2017-03-24T12:12:47.964Z,25.60
2017-03-24T12:13:47.934Z,25.70
2017-03-24T12:14:47.945Z,25.40
2017-03-24T12:15:48.644Z,25.20
2017-03-24T12:16:48.610Z,25.60
2017-03-24T12:17:48.590Z,25.90
2017-03-24T12:18:48.566Z,26.30
2017-03-24T12:19:48.568Z,26.50
2017-03-24T12:20:48.766Z,26.10
2017-03-24T12:21:48.824Z,26.30
2017-03-24T12:22:48.788Z,26.60
2017-03-24T12:23:48.754Z,27.10
2017-03-24T12:24:48.786Z,27.70
2017-03-24T12:25:48.771Z,28.10
2017-03-24T12:26:48.775Z,27.70
2017-03-24T12:27:48.869Z,27.50
2017-03-24T12:28:48.871Z,27.20
2017-03-24T12:29:48.857Z,26.80
2017-03-24T12:30:48.848Z,26.90
2017-03-24T12:31:48.844Z,26.80
2017-03-24T12:32:48.817Z,26.90
2017-03-24T12:33:48.861Z,27.00
2017-03-24T12:34:48.851Z,26.40
2017-03-24T12:35:48.877Z,26.20
2017-03-24T12:36:48.941Z,26.30
2017-03-24T12:37:48.952Z,26.70
2017-03-24T12:38:48.973Z,26.80
2017-03-24T12:39:49.861Z,26.10
2017-03-24T12:40:49.890Z,25.40
2017-03-24T12:41:49.826Z,25.20
2017-03-24T12:42:49.855Z,25.50
2017-03-24T12:43:49.826Z,25.60
2017-03-24T12:44:49.830Z,25.70
2017-03-24T12:45:49.799Z,25.70
2017-03-24T12:46:49.793Z,25.90
2017-03-24T12:47:50.586Z,26.20
2017-03-24T12:48:50.558Z,26.40
2017-03-24T12:49:50.528Z,26.70
2017-03-24T12:50:50.514Z,26.90
2017-03-24T12:51:50.522Z,27.10
2017-03-24T12:52:50.482Z,27.10
2017-03-24T12:53:50.574Z,27.00
2017-03-24T12:54:50.581Z,27.30
2017-03-24T12:55:50.591Z,27.90
2017-03-24T12:56:50.618Z,28.60
2017-03-24T12:57:50.571Z,28.70
2017-03-24T12:58:50.532Z,28.70
2017-03-24T12:59:50.539Z,28.30
2017-03-24T13:00:50.508Z,27.40
2017-03-24T13:01:50.525Z,26.50
2017-03-24T13:02:50.551Z,26.00
2017-03-24T13:03:50.551Z,26.10
2017-03-24T13:04:50.539Z,26.20
2017-03-24T13:05:50.506Z,26.20
2017-03-24T13:06:50.638Z,26.00
2017-03-24T13:07:50.604Z,25.90
2017-03-24T13:08:50.565Z,26.00
2017-03-24T13:09:50.548Z,26.40
2017-03-24T13:10:50.655Z,26.30
2017-03-24T13:11:50.787Z,26.00
2017-03-24T13:12:51.581Z,26.00
2017-03-24T13:13:51.702Z,26.20
2017-03-24T13:14:51.681Z,26.10
2017-03-24T13:15:51.723Z,26.20